sensor_id;sensor_type;location;lat;lon;timestamp;P1;durP1;ratioP1;P2;durP2;ratioP2
20906;SDS011;10613;50.966;5.814;2023-10-19T00:01:57;4.00;;;4.00;;
20906;SDS011;10613;50.966;5.814;2023-10-19T00:06:08;4.00;;;4.00;;
20906;SDS011;10613;50.966;5.814;2023-10-19T00:10:16;2.00;;;2.00;;
20906;SDS011;10613;50.966;5.814;2023-10-19T00:14:23;2.00;;;2.00;;
20906;SDS011;10613;50.966;5.814;2023-10-19T00:18:35;2.00;;;2.00;;
20906;SDS011;10613;50.966;5.814;2023-10-19T00:22:42;2.00;;;2.00;;
20906;SDS011;10613;50.966;5.814;2023-10-19T00:26:50;1.75;;;1.75;;
20906;SDS011;10613;50.966;5.814;2023-10-19T00:31:00;2.00;;;2.00;;
20906;SDS011;10613;50.966;5.814;2023-10-19T00:35:15;2.00;;;2.00;;
20906;SDS011;10613;50.966;5.814;2023-10-19T00:39:50;3.50;;;3.50;;
20906;SDS011;10613;50.966;5.814;2023-10-19T00:44:01;2.00;;;2.00;;
20906;SDS011;10613;50.966;5.814;2023-10-19T00:48:19;2.00;;;2.00;;
20906;SDS011;10613;50.966;5.814;2023-10-19T00:52:31;1.75;;;1.75;;
20906;SDS011;10613;50.966;5.814;2023-10-19T00:56:40;1.50;;;1.50;;
20906;SDS011;10613;50.966;5.814;2023-10-19T01:00:52;1.50;;;1.50;;
20906;SDS011;10613;50.966;5.814;2023-10-19T01:05:02;2.00;;;2.00;;
20906;SDS011;10613;50.966;5.814;2023-10-19T01:09:12;2.00;;;2.00;;
20906;SDS011;10613;50.966;5.814;2023-10-19T01:13:29;2.00;;;2.00;;
20906;SDS011;10613;50.966;5.814;2023-10-19T01:17:41;2.00;;;2.00;;
20906;SDS011;10613;50.966;5.814;2023-10-19T01:21:50;2.00;;;2.00;;
20906;SDS011;10613;50.966;5.814;2023-10-19T01:26:00;1.00;;;1.00;;
20906;SDS011;10613;50.966;5.814;2023-10-19T01:30:07;4.00;;;2.00;;
20906;SDS011;10613;50.966;5.814;2023-10-19T01:34:16;2.00;;;2.00;;
20906;SDS011;10613;50.966;5.814;2023-10-19T01:38:27;1.50;;;1.50;;
20906;SDS011;10613;50.966;5.814;2023-10-19T01:42:37;1.75;;;1.75;;
20906;SDS011;10613;50.966;5.814;2023-10-19T01:46:45;2.00;;;2.00;;
20906;SDS011;10613;50.966;5.814;2023-10-19T01:50:53;3.00;;;2.00;;
20906;SDS011;10613;50.966;5.814;2023-10-19T01:55:00;2.00;;;2.00;;
20906;SDS011;10613;50.966;5.814;2023-10-19T01:59:14;3.50;;;3.50;;
20906;SDS011;10613;50.966;5.814;2023-10-19T02:03:23;1.00;;;1.00;;
20906;SDS011;10613;50.966;5.814;2023-10-19T02:07:31;2.00;;;2.00;;
20906;SDS011;10613;50.966;5.814;2023-10-19T02:11:39;1.00;;;1.00;;
20906;SDS011;10613;50.966;5.814;2023-10-19T02:15:48;1.75;;;1.75;;
20906;SDS011;10613;50.966;5.814;2023-10-19T02:19:56;2.00;;;2.00;;
20906;SDS011;10613;50.966;5.814;2023-10-19T02:24:03;2.00;;;2.00;;
20906;SDS011;10613;50.966;5.814;2023-10-19T02:28:10;1.00;;;1.00;;
20906;SDS011;10613;50.966;5.814;2023-10-19T02:32:18;1.25;;;1.25;;
20906;SDS011;10613;50.966;5.814;2023-10-19T02:36:26;1.50;;;1.50;;
20906;SDS011;10613;50.966;5.814;2023-10-19T02:40:37;2.00;;;2.00;;
20906;SDS011;10613;50.966;5.814;2023-10-19T02:44:44;1.25;;;1.25;;
20906;SDS011;10613;50.966;5.814;2023-10-19T02:49:02;1.00;;;1.00;;
20906;SDS011;10613;50.966;5.814;2023-10-19T02:53:10;1.25;;;1.25;;
20906;SDS011;10613;50.966;5.814;2023-10-19T02:57:20;1.00;;;1.00;;
20906;SDS011;10613;50.966;5.814;2023-10-19T03:01:27;2.00;;;2.00;;
20906;SDS011;10613;50.966;5.814;2023-10-19T03:05:38;2.00;;;2.00;;
20906;SDS011;10613;50.966;5.814;2023-10-19T03:09:46;2.00;;;2.00;;
20906;SDS011;10613;50.966;5.814;2023-10-19T03:13:56;1.00;;;1.00;;
20906;SDS011;10613;50.966;5.814;2023-10-19T03:18:04;2.00;;;2.00;;
20906;SDS011;10613;50.966;5.814;2023-10-19T03:22:11;2.00;;;2.00;;
20906;SDS011;10613;50.966;5.814;2023-10-19T03:26:18;2.00;;;2.00;;
20906;SDS011;10613;50.966;5.814;2023-10-19T03:30:38;2.00;;;2.00;;
20906;SDS011;10613;50.966;5.814;2023-10-19T03:34:45;1.25;;;1.25;;
20906;SDS011;10613;50.966;5.814;2023-10-19T03:39:02;3.00;;;3.00;;
20906;SDS011;10613;50.966;5.814;2023-10-19T03:43:21;1.25;;;1.25;;
20906;SDS011;10613;50.966;5.814;2023-10-19T03:47:33;1.25;;;1.25;;
20906;SDS011;10613;50.966;5.814;2023-10-19T03:51:45;1.75;;;1.75;;
20906;SDS011;10613;50.966;5.814;2023-10-19T03:56:25;1.00;;;1.00;;
20906;SDS011;10613;50.966;5.814;2023-10-19T04:00:33;2.00;;;2.00;;
20906;SDS011;10613;50.966;5.814;2023-10-19T04:04:41;1.50;;;1.50;;
20906;SDS011;10613;50.966;5.814;2023-10-19T04:08:54;2.00;;;2.00;;
20906;SDS011;10613;50.966;5.814;2023-10-19T04:13:01;1.00;;;1.00;;
20906;SDS011;10613;50.966;5.814;2023-10-19T04:17:09;7.00;;;7.00;;
20906;SDS011;10613;50.966;5.814;2023-10-19T04:21:18;1.50;;;1.50;;
20906;SDS011;10613;50.966;5.814;2023-10-19T04:25:33;1.00;;;1.00;;
20906;SDS011;10613;50.966;5.814;2023-10-19T04:29:40;1.75;;;1.75;;
20906;SDS011;10613;50.966;5.814;2023-10-19T04:33:50;2.00;;;2.00;;
20906;SDS011;10613;50.966;5.814;2023-10-19T04:37:57;1.00;;;1.00;;
20906;SDS011;10613;50.966;5.814;2023-10-19T04:42:04;2.00;;;2.00;;
20906;SDS011;10613;50.966;5.814;2023-10-19T04:46:11;2.00;;;2.00;;
20906;SDS011;10613;50.966;5.814;2023-10-19T04:50:18;2.00;;;2.00;;
20906;SDS011;10613;50.966;5.814;2023-10-19T04:54:25;2.00;;;2.00;;
20906;SDS011;10613;50.966;5.814;2023-10-19T04:58:32;3.50;;;3.50;;
20906;SDS011;10613;50.966;5.814;2023-10-19T05:02:40;1.00;;;1.00;;
20906;SDS011;10613;50.966;5.814;2023-10-19T05:06:47;1.00;;;1.00;;
20906;SDS011;10613;50.966;5.814;2023-10-19T05:10:54;1.50;;;1.50;;
20906;SDS011;10613;50.966;5.814;2023-10-19T05:15:01;1.25;;;1.25;;
20906;SDS011;10613;50.966;5.814;2023-10-19T05:19:08;2.00;;;2.00;;
20906;SDS011;10613;50.966;5.814;2023-10-19T05:23:15;2.50;;;2.50;;
20906;SDS011;10613;50.966;5.814;2023-10-19T05:27:22;1.00;;;1.00;;
20906;SDS011;10613;50.966;5.814;2023-10-19T05:31:29;2.00;;;2.00;;
20906;SDS011;10613;50.966;5.814;2023-10-19T05:35:38;2.00;;;2.00;;
20906;SDS011;10613;50.966;5.814;2023-10-19T05:39:47;1.75;;;1.75;;
20906;SDS011;10613;50.966;5.814;2023-10-19T05:43:54;4.00;;;2.00;;
20906;SDS011;10613;50.966;5.814;2023-10-19T05:48:01;2.50;;;2.50;;
20906;SDS011;10613;50.966;5.814;2023-10-19T05:52:10;1.00;;;1.00;;
20906;SDS011;10613;50.966;5.814;2023-10-19T05:56:17;2.50;;;2.50;;
20906;SDS011;10613;50.966;5.814;2023-10-19T06:00:30;2.00;;;2.00;;
20906;SDS011;10613;50.966;5.814;2023-10-19T06:04:41;1.00;;;1.00;;
20906;SDS011;10613;50.966;5.814;2023-10-19T06:08:55;1.00;;;1.00;;
20906;SDS011;10613;50.966;5.814;2023-10-19T06:13:05;2.00;;;2.00;;
20906;SDS011;10613;50.966;5.814;2023-10-19T06:17:16;2.00;;;2.00;;
20906;SDS011;10613;50.966;5.814;2023-10-19T06:21:25;2.00;;;2.00;;
20906;SDS011;10613;50.966;5.814;2023-10-19T06:25:32;1.25;;;1.25;;
20906;SDS011;10613;50.966;5.814;2023-10-19T06:29:41;2.00;;;2.00;;
20906;SDS011;10613;50.966;5.814;2023-10-19T06:33:49;1.75;;;1.75;;
20906;SDS011;10613;50.966;5.814;2023-10-19T06:38:02;4.00;;;4.00;;
20906;SDS011;10613;50.966;5.814;2023-10-19T06:42:11;4.00;;;4.00;;
20906;SDS011;10613;50.966;5.814;2023-10-19T06:46:21;1.50;;;1.50;;
20906;SDS011;10613;50.966;5.814;2023-10-19T06:50:28;2.00;;;2.00;;
20906;SDS011;10613;50.966;5.814;2023-10-19T06:54:35;2.00;;;2.00;;
20906;SDS011;10613;50.966;5.814;2023-10-19T06:58:43;2.00;;;2.00;;
20906;SDS011;10613;50.966;5.814;2023-10-19T07:02:50;2.50;;;2.00;;
20906;SDS011;10613;50.966;5.814;2023-10-19T07:06:58;4.00;;;4.00;;
20906;SDS011;10613;50.966;5.814;2023-10-19T07:11:05;3.50;;;3.50;;
20906;SDS011;10613;50.966;5.814;2023-10-19T07:15:12;4.50;;;4.50;;
20906;SDS011;10613;50.966;5.814;2023-10-19T07:19:22;4.00;;;4.00;;
20906;SDS011;10613;50.966;5.814;2023-10-19T07:23:29;4.00;;;4.00;;
20906;SDS011;10613;50.966;5.814;2023-10-19T07:27:36;2.50;;;2.50;;
20906;SDS011;10613;50.966;5.814;2023-10-19T07:31:43;4.00;;;4.00;;
20906;SDS011;10613;50.966;5.814;2023-10-19T07:35:51;3.00;;;3.00;;
20906;SDS011;10613;50.966;5.814;2023-10-19T07:40:02;3.50;;;3.50;;
20906;SDS011;10613;50.966;5.814;2023-10-19T07:44:11;4.00;;;4.00;;
20906;SDS011;10613;50.966;5.814;2023-10-19T07:48:18;4.00;;;4.00;;
20906;SDS011;10613;50.966;5.814;2023-10-19T07:52:25;4.50;;;3.00;;
20906;SDS011;10613;50.966;5.814;2023-10-19T07:56:32;3.00;;;3.00;;
20906;SDS011;10613;50.966;5.814;2023-10-19T08:00:42;2.00;;;2.00;;
20906;SDS011;10613;50.966;5.814;2023-10-19T08:04:49;4.00;;;2.00;;
20906;SDS011;10613;50.966;5.814;2023-10-19T08:08:56;4.00;;;4.00;;
20906;SDS011;10613;50.966;5.814;2023-10-19T08:13:04;2.50;;;2.00;;
20906;SDS011;10613;50.966;5.814;2023-10-19T08:17:11;4.00;;;4.00;;
20906;SDS011;10613;50.966;5.814;2023-10-19T08:21:26;2.00;;;2.00;;
20906;SDS011;10613;50.966;5.814;2023-10-19T08:25:36;2.00;;;2.00;;
20906;SDS011;10613;50.966;5.814;2023-10-19T08:29:43;4.00;;;4.00;;
20906;SDS011;10613;50.966;5.814;2023-10-19T08:33:50;4.00;;;2.00;;
20906;SDS011;10613;50.966;5.814;2023-10-19T08:37:57;4.50;;;4.00;;
20906;SDS011;10613;50.966;5.814;2023-10-19T08:42:04;1.75;;;1.75;;
20906;SDS011;10613;50.966;5.814;2023-10-19T08:46:18;2.50;;;2.50;;
20906;SDS011;10613;50.966;5.814;2023-10-19T08:50:26;4.00;;;4.00;;
20906;SDS011;10613;50.966;5.814;2023-10-19T08:54:33;4.75;;;4.25;;
20906;SDS011;10613;50.966;5.814;2023-10-19T08:58:41;2.00;;;2.00;;
20906;SDS011;10613;50.966;5.814;2023-10-19T09:02:47;2.50;;;2.50;;
20906;SDS011;10613;50.966;5.814;2023-10-19T09:06:54;4.00;;;4.00;;
20906;SDS011;10613;50.966;5.814;2023-10-19T09:11:02;2.50;;;2.50;;
20906;SDS011;10613;50.966;5.814;2023-10-19T09:15:21;4.00;;;3.00;;
20906;SDS011;10613;50.966;5.814;2023-10-19T09:19:40;4.25;;;4.25;;
20906;SDS011;10613;50.966;5.814;2023-10-19T09:23:48;2.00;;;2.00;;
20906;SDS011;10613;50.966;5.814;2023-10-19T09:27:55;1.75;;;1.75;;
20906;SDS011;10613;50.966;5.814;2023-10-19T09:32:02;2.50;;;2.50;;
20906;SDS011;10613;50.966;5.814;2023-10-19T09:36:12;4.00;;;4.00;;
20906;SDS011;10613;50.966;5.814;2023-10-19T09:40:22;2.00;;;2.00;;
20906;SDS011;10613;50.966;5.814;2023-10-19T09:44:32;4.00;;;4.00;;
20906;SDS011;10613;50.966;5.814;2023-10-19T09:48:42;2.00;;;2.00;;
20906;SDS011;10613;50.966;5.814;2023-10-19T09:52:52;2.00;;;2.00;;
20906;SDS011;10613;50.966;5.814;2023-10-19T09:57:02;4.00;;;4.00;;
20906;SDS011;10613;50.966;5.814;2023-10-19T10:01:10;4.00;;;4.00;;
20906;SDS011;10613;50.966;5.814;2023-10-19T10:09:44;2.50;;;2.50;;
20906;SDS011;10613;50.966;5.814;2023-10-19T10:13:52;4.50;;;3.00;;
20906;SDS011;10613;50.966;5.814;2023-10-19T10:17:59;2.00;;;1.75;;
20906;SDS011;10613;50.966;5.814;2023-10-19T10:22:19;2.00;;;2.00;;
20906;SDS011;10613;50.966;5.814;2023-10-19T10:26:28;2.00;;;2.00;;
20906;SDS011;10613;50.966;5.814;2023-10-19T10:35:09;4.00;;;2.00;;
20906;SDS011;10613;50.966;5.814;2023-10-19T10:39:23;3.00;;;3.00;;
20906;SDS011;10613;50.966;5.814;2023-10-19T10:43:31;4.00;;;4.00;;
20906;SDS011;10613;50.966;5.814;2023-10-19T10:47:38;3.00;;;3.00;;
20906;SDS011;10613;50.966;5.814;2023-10-19T10:51:50;3.00;;;3.00;;
20906;SDS011;10613;50.966;5.814;2023-10-19T10:56:00;3.00;;;3.00;;
20906;SDS011;10613;50.966;5.814;2023-10-19T11:00:08;2.00;;;2.00;;
20906;SDS011;10613;50.966;5.814;2023-10-19T11:04:25;2.00;;;2.00;;
20906;SDS011;10613;50.966;5.814;2023-10-19T11:08:35;4.00;;;2.50;;
20906;SDS011;10613;50.966;5.814;2023-10-19T11:12:42;2.00;;;2.00;;
20906;SDS011;10613;50.966;5.814;2023-10-19T11:16:50;2.00;;;2.00;;
20906;SDS011;10613;50.966;5.814;2023-10-19T11:20:58;2.00;;;2.00;;
20906;SDS011;10613;50.966;5.814;2023-10-19T11:25:17;3.50;;;3.50;;
20906;SDS011;10613;50.966;5.814;2023-10-19T11:29:23;2.00;;;2.00;;
20906;SDS011;10613;50.966;5.814;2023-10-19T11:33:31;2.25;;;2.00;;
20906;SDS011;10613;50.966;5.814;2023-10-19T11:37:55;2.00;;;2.00;;
20906;SDS011;10613;50.966;5.814;2023-10-19T11:42:01;2.75;;;2.25;;
20906;SDS011;10613;50.966;5.814;2023-10-19T11:46:09;1.75;;;1.75;;
20906;SDS011;10613;50.966;5.814;2023-10-19T11:50:16;2.00;;;2.00;;
20906;SDS011;10613;50.966;5.814;2023-10-19T11:54:24;3.00;;;2.25;;
20906;SDS011;10613;50.966;5.814;2023-10-19T11:58:32;3.00;;;3.00;;
20906;SDS011;10613;50.966;5.814;2023-10-19T12:02:42;4.00;;;4.00;;
20906;SDS011;10613;50.966;5.814;2023-10-19T12:06:49;3.00;;;2.00;;
20906;SDS011;10613;50.966;5.814;2023-10-19T12:10:56;2.50;;;2.50;;
20906;SDS011;10613;50.966;5.814;2023-10-19T12:15:04;2.00;;;2.00;;
20906;SDS011;10613;50.966;5.814;2023-10-19T12:19:14;3.00;;;3.00;;
20906;SDS011;10613;50.966;5.814;2023-10-19T12:23:22;4.75;;;4.75;;
20906;SDS011;10613;50.966;5.814;2023-10-19T12:27:32;2.00;;;2.00;;
20906;SDS011;10613;50.966;5.814;2023-10-19T12:31:40;2.00;;;2.00;;
20906;SDS011;10613;50.966;5.814;2023-10-19T12:35:53;1.00;;;1.00;;
20906;SDS011;10613;50.966;5.814;2023-10-19T12:40:04;2.25;;;2.25;;
20906;SDS011;10613;50.966;5.814;2023-10-19T12:44:30;1.75;;;1.75;;
20906;SDS011;10613;50.966;5.814;2023-10-19T12:48:45;2.00;;;2.00;;
20906;SDS011;10613;50.966;5.814;2023-10-19T12:52:56;2.75;;;2.75;;
20906;SDS011;10613;50.966;5.814;2023-10-19T12:57:03;2.75;;;2.75;;
20906;SDS011;10613;50.966;5.814;2023-10-19T13:01:18;5.25;;;5.00;;
20906;SDS011;10613;50.966;5.814;2023-10-19T13:05:27;3.00;;;3.00;;
20906;SDS011;10613;50.966;5.814;2023-10-19T13:09:54;2.00;;;2.00;;
20906;SDS011;10613;50.966;5.814;2023-10-19T13:14:21;2.25;;;2.25;;
20906;SDS011;10613;50.966;5.814;2023-10-19T13:18:28;3.50;;;3.50;;
20906;SDS011;10613;50.966;5.814;2023-10-19T13:22:35;5.25;;;4.25;;
20906;SDS011;10613;50.966;5.814;2023-10-19T13:26:42;2.75;;;2.75;;
20906;SDS011;10613;50.966;5.814;2023-10-19T13:30:55;4.00;;;4.00;;
20906;SDS011;10613;50.966;5.814;2023-10-19T13:35:02;2.00;;;2.00;;
20906;SDS011;10613;50.966;5.814;2023-10-19T13:39:08;4.50;;;4.50;;
20906;SDS011;10613;50.966;5.814;2023-10-19T13:43:19;1.25;;;1.25;;
20906;SDS011;10613;50.966;5.814;2023-10-19T13:47:26;2.00;;;2.00;;
20906;SDS011;10613;50.966;5.814;2023-10-19T13:51:33;2.25;;;2.00;;
20906;SDS011;10613;50.966;5.814;2023-10-19T13:55:54;2.00;;;2.00;;
20906;SDS011;10613;50.966;5.814;2023-10-19T14:00:02;2.00;;;2.00;;
20906;SDS011;10613;50.966;5.814;2023-10-19T14:04:08;6.00;;;5.00;;
20906;SDS011;10613;50.966;5.814;2023-10-19T14:08:16;3.75;;;3.75;;
20906;SDS011;10613;50.966;5.814;2023-10-19T14:12:23;3.50;;;3.50;;
20906;SDS011;10613;50.966;5.814;2023-10-19T14:16:31;2.25;;;2.00;;
20906;SDS011;10613;50.966;5.814;2023-10-19T14:20:37;4.50;;;4.50;;
20906;SDS011;10613;50.966;5.814;2023-10-19T14:24:45;5.00;;;3.50;;
20906;SDS011;10613;50.966;5.814;2023-10-19T14:28:52;2.00;;;2.00;;
20906;SDS011;10613;50.966;5.814;2023-10-19T14:33:01;4.75;;;4.75;;
20906;SDS011;10613;50.966;5.814;2023-10-19T14:37:08;3.00;;;3.00;;
20906;SDS011;10613;50.966;5.814;2023-10-19T14:41:14;4.00;;;4.00;;
20906;SDS011;10613;50.966;5.814;2023-10-19T14:45:23;4.00;;;4.00;;
20906;SDS011;10613;50.966;5.814;2023-10-19T14:49:36;4.25;;;4.25;;
20906;SDS011;10613;50.966;5.814;2023-10-19T14:53:44;2.00;;;2.00;;
20906;SDS011;10613;50.966;5.814;2023-10-19T14:57:51;2.00;;;2.00;;
20906;SDS011;10613;50.966;5.814;2023-10-19T15:01:59;4.25;;;2.25;;
20906;SDS011;10613;50.966;5.814;2023-10-19T15:06:07;5.00;;;4.00;;
20906;SDS011;10613;50.966;5.814;2023-10-19T15:10:14;3.00;;;3.00;;
20906;SDS011;10613;50.966;5.814;2023-10-19T15:14:21;4.00;;;4.00;;
20906;SDS011;10613;50.966;5.814;2023-10-19T15:18:28;2.00;;;2.00;;
20906;SDS011;10613;50.966;5.814;2023-10-19T15:22:35;2.50;;;2.50;;
20906;SDS011;10613;50.966;5.814;2023-10-19T15:26:42;2.50;;;2.50;;
20906;SDS011;10613;50.966;5.814;2023-10-19T15:30:50;4.00;;;4.00;;
20906;SDS011;10613;50.966;5.814;2023-10-19T15:34:57;3.00;;;3.00;;
20906;SDS011;10613;50.966;5.814;2023-10-19T15:39:04;2.00;;;2.00;;
20906;SDS011;10613;50.966;5.814;2023-10-19T15:43:18;2.50;;;2.50;;
20906;SDS011;10613;50.966;5.814;2023-10-19T15:47:25;3.00;;;3.00;;
20906;SDS011;10613;50.966;5.814;2023-10-19T15:51:32;2.00;;;2.00;;
20906;SDS011;10613;50.966;5.814;2023-10-19T15:55:39;2.50;;;2.50;;
20906;SDS011;10613;50.966;5.814;2023-10-19T15:59:46;4.25;;;2.00;;
20906;SDS011;10613;50.966;5.814;2023-10-19T16:03:53;3.50;;;3.50;;
20906;SDS011;10613;50.966;5.814;2023-10-19T16:08:00;2.75;;;2.75;;
20906;SDS011;10613;50.966;5.814;2023-10-19T16:12:07;5.00;;;3.00;;
20906;SDS011;10613;50.966;5.814;2023-10-19T16:16:15;3.00;;;2.00;;
20906;SDS011;10613;50.966;5.814;2023-10-19T16:20:22;3.50;;;3.00;;
20906;SDS011;10613;50.966;5.814;2023-10-19T16:24:29;2.00;;;2.00;;
20906;SDS011;10613;50.966;5.814;2023-10-19T16:28:36;2.75;;;2.75;;
20906;SDS011;10613;50.966;5.814;2023-10-19T16:32:43;2.50;;;2.50;;
20906;SDS011;10613;50.966;5.814;2023-10-19T16:36:57;3.25;;;3.25;;
20906;SDS011;10613;50.966;5.814;2023-10-19T16:41:04;2.00;;;2.00;;
20906;SDS011;10613;50.966;5.814;2023-10-19T16:45:12;3.00;;;3.00;;
20906;SDS011;10613;50.966;5.814;2023-10-19T16:49:19;4.75;;;4.75;;
20906;SDS011;10613;50.966;5.814;2023-10-19T16:53:26;4.50;;;4.50;;
20906;SDS011;10613;50.966;5.814;2023-10-19T16:57:33;4.00;;;4.00;;
20906;SDS011;10613;50.966;5.814;2023-10-19T17:01:40;5.00;;;3.00;;
20906;SDS011;10613;50.966;5.814;2023-10-19T17:05:47;6.75;;;6.75;;
20906;SDS011;10613;50.966;5.814;2023-10-19T17:09:55;4.00;;;4.00;;
20906;SDS011;10613;50.966;5.814;2023-10-19T17:14:02;4.25;;;4.25;;
20906;SDS011;10613;50.966;5.814;2023-10-19T17:18:09;5.25;;;5.25;;
20906;SDS011;10613;50.966;5.814;2023-10-19T17:22:16;6.00;;;6.00;;
20906;SDS011;10613;50.966;5.814;2023-10-19T17:26:23;5.00;;;5.00;;
20906;SDS011;10613;50.966;5.814;2023-10-19T17:30:31;5.00;;;5.00;;
20906;SDS011;10613;50.966;5.814;2023-10-19T17:34:39;6.00;;;5.00;;
20906;SDS011;10613;50.966;5.814;2023-10-19T17:38:46;5.00;;;5.00;;
20906;SDS011;10613;50.966;5.814;2023-10-19T17:42:53;4.00;;;4.00;;
20906;SDS011;10613;50.966;5.814;2023-10-19T17:47:00;5.75;;;4.50;;
20906;SDS011;10613;50.966;5.814;2023-10-19T17:51:11;8.75;;;8.75;;
20906;SDS011;10613;50.966;5.814;2023-10-19T17:55:27;5.50;;;5.50;;
20906;SDS011;10613;50.966;5.814;2023-10-19T17:59:34;7.00;;;6.00;;
20906;SDS011;10613;50.966;5.814;2023-10-19T18:03:42;8.00;;;6.00;;
20906;SDS011;10613;50.966;5.814;2023-10-19T18:07:49;5.00;;;5.00;;
20906;SDS011;10613;50.966;5.814;2023-10-19T18:11:59;4.75;;;4.75;;
20906;SDS011;10613;50.966;5.814;2023-10-19T18:16:06;7.75;;;5.50;;
20906;SDS011;10613;50.966;5.814;2023-10-19T18:20:13;5.50;;;5.50;;
20906;SDS011;10613;50.966;5.814;2023-10-19T18:24:23;5.25;;;5.25;;
20906;SDS011;10613;50.966;5.814;2023-10-19T18:28:32;5.75;;;5.75;;
20906;SDS011;10613;50.966;5.814;2023-10-19T18:32:39;5.50;;;5.00;;
20906;SDS011;10613;50.966;5.814;2023-10-19T18:36:47;5.25;;;5.25;;
20906;SDS011;10613;50.966;5.814;2023-10-19T18:40:57;8.00;;;5.00;;
20906;SDS011;10613;50.966;5.814;2023-10-19T18:45:05;9.00;;;9.00;;
20906;SDS011;10613;50.966;5.814;2023-10-19T18:49:12;7.00;;;7.00;;
20906;SDS011;10613;50.966;5.814;2023-10-19T18:53:19;5.25;;;5.25;;
20906;SDS011;10613;50.966;5.814;2023-10-19T18:57:26;8.50;;;7.50;;
20906;SDS011;10613;50.966;5.814;2023-10-19T19:01:34;8.00;;;7.75;;
20906;SDS011;10613;50.966;5.814;2023-10-19T19:05:54;7.50;;;7.50;;
20906;SDS011;10613;50.966;5.814;2023-10-19T19:10:15;5.25;;;5.25;;
20906;SDS011;10613;50.966;5.814;2023-10-19T19:14:22;8.75;;;6.00;;
20906;SDS011;10613;50.966;5.814;2023-10-19T19:18:29;6.00;;;6.00;;
20906;SDS011;10613;50.966;5.814;2023-10-19T19:22:36;8.00;;;8.00;;
20906;SDS011;10613;50.966;5.814;2023-10-19T19:26:43;9.00;;;8.50;;
20906;SDS011;10613;50.966;5.814;2023-10-19T19:30:51;8.00;;;8.00;;
20906;SDS011;10613;50.966;5.814;2023-10-19T19:34:58;6.75;;;6.75;;
20906;SDS011;10613;50.966;5.814;2023-10-19T19:39:05;8.25;;;8.00;;
20906;SDS011;10613;50.966;5.814;2023-10-19T19:43:14;5.00;;;5.00;;
20906;SDS011;10613;50.966;5.814;2023-10-19T19:47:21;5.50;;;4.00;;
20906;SDS011;10613;50.966;5.814;2023-10-19T19:51:28;8.00;;;6.00;;
20906;SDS011;10613;50.966;5.814;2023-10-19T19:55:36;5.00;;;5.00;;
20906;SDS011;10613;50.966;5.814;2023-10-19T19:59:44;5.00;;;5.00;;
20906;SDS011;10613;50.966;5.814;2023-10-19T20:03:52;5.75;;;5.75;;
20906;SDS011;10613;50.966;5.814;2023-10-19T20:07:59;5.00;;;5.00;;
20906;SDS011;10613;50.966;5.814;2023-10-19T20:12:07;7.25;;;7.25;;
20906;SDS011;10613;50.966;5.814;2023-10-19T20:16:16;8.00;;;6.75;;
20906;SDS011;10613;50.966;5.814;2023-10-19T20:20:30;10.25;;;10.25;;
20906;SDS011;10613;50.966;5.814;2023-10-19T20:24:37;8.75;;;8.00;;
20906;SDS011;10613;50.966;5.814;2023-10-19T20:28:51;8.50;;;7.25;;
20906;SDS011;10613;50.966;5.814;2023-10-19T20:32:58;10.00;;;9.75;;
20906;SDS011;10613;50.966;5.814;2023-10-19T20:37:05;6.50;;;6.50;;
20906;SDS011;10613;50.966;5.814;2023-10-19T20:41:19;20.25;;;19.75;;
20906;SDS011;10613;50.966;5.814;2023-10-19T20:45:26;10.25;;;8.25;;
20906;SDS011;10613;50.966;5.814;2023-10-19T20:49:33;8.00;;;8.00;;
20906;SDS011;10613;50.966;5.814;2023-10-19T20:53:40;7.25;;;7.25;;
20906;SDS011;10613;50.966;5.814;2023-10-19T20:57:47;9.25;;;8.25;;
20906;SDS011;10613;50.966;5.814;2023-10-19T21:01:54;5.00;;;5.00;;
20906;SDS011;10613;50.966;5.814;2023-10-19T21:06:15;7.00;;;7.00;;
20906;SDS011;10613;50.966;5.814;2023-10-19T21:10:22;6.00;;;5.50;;
20906;SDS011;10613;50.966;5.814;2023-10-19T21:14:29;8.00;;;8.00;;
20906;SDS011;10613;50.966;5.814;2023-10-19T21:18:39;8.25;;;6.50;;
20906;SDS011;10613;50.966;5.814;2023-10-19T21:22:48;6.25;;;6.25;;
20906;SDS011;10613;50.966;5.814;2023-10-19T21:26:56;6.75;;;6.75;;
20906;SDS011;10613;50.966;5.814;2023-10-19T21:31:03;7.00;;;7.00;;
20906;SDS011;10613;50.966;5.814;2023-10-19T21:35:10;9.00;;;8.00;;
20906;SDS011;10613;50.966;5.814;2023-10-19T21:39:18;11.00;;;8.75;;
20906;SDS011;10613;50.966;5.814;2023-10-19T21:43:26;9.50;;;6.25;;
20906;SDS011;10613;50.966;5.814;2023-10-19T21:47:34;6.75;;;6.75;;
20906;SDS011;10613;50.966;5.814;2023-10-19T21:51:41;7.75;;;7.75;;
20906;SDS011;10613;50.966;5.814;2023-10-19T21:55:51;8.25;;;8.25;;
20906;SDS011;10613;50.966;5.814;2023-10-19T21:59:58;9.00;;;8.00;;
20906;SDS011;10613;50.966;5.814;2023-10-19T22:04:05;4.25;;;4.25;;
20906;SDS011;10613;50.966;5.814;2023-10-19T22:08:12;8.00;;;8.00;;
20906;SDS011;10613;50.966;5.814;2023-10-19T22:12:19;8.50;;;8.50;;
20906;SDS011;10613;50.966;5.814;2023-10-19T22:16:26;7.00;;;5.00;;
20906;SDS011;10613;50.966;5.814;2023-10-19T22:20:35;10.50;;;8.00;;
20906;SDS011;10613;50.966;5.814;2023-10-19T22:24:48;7.25;;;7.25;;
20906;SDS011;10613;50.966;5.814;2023-10-19T22:28:55;7.25;;;7.25;;
20906;SDS011;10613;50.966;5.814;2023-10-19T22:33:02;5.75;;;5.75;;
20906;SDS011;10613;50.966;5.814;2023-10-19T22:37:09;6.00;;;6.00;;
20906;SDS011;10613;50.966;5.814;2023-10-19T22:41:17;9.50;;;8.00;;
20906;SDS011;10613;50.966;5.814;2023-10-19T22:45:25;8.00;;;6.00;;
20906;SDS011;10613;50.966;5.814;2023-10-19T22:49:32;8.75;;;8.00;;
20906;SDS011;10613;50.966;5.814;2023-10-19T22:53:40;7.50;;;7.50;;
20906;SDS011;10613;50.966;5.814;2023-10-19T22:57:52;9.00;;;9.00;;
20906;SDS011;10613;50.966;5.814;2023-10-19T23:01:59;13.25;;;11.25;;
20906;SDS011;10613;50.966;5.814;2023-10-19T23:06:06;11.00;;;11.00;;
20906;SDS011;10613;50.966;5.814;2023-10-19T23:10:17;15.75;;;12.75;;
20906;SDS011;10613;50.966;5.814;2023-10-19T23:14:26;12.25;;;12.25;;
20906;SDS011;10613;50.966;5.814;2023-10-19T23:18:33;9.25;;;8.00;;
20906;SDS011;10613;50.966;5.814;2023-10-19T23:22:43;12.75;;;10.00;;
20906;SDS011;10613;50.966;5.814;2023-10-19T23:26:50;8.00;;;8.00;;
20906;SDS011;10613;50.966;5.814;2023-10-19T23:30:57;6.00;;;6.00;;
20906;SDS011;10613;50.966;5.814;2023-10-19T23:35:11;6.50;;;6.50;;
20906;SDS011;10613;50.966;5.814;2023-10-19T23:39:20;8.75;;;8.00;;
20906;SDS011;10613;50.966;5.814;2023-10-19T23:43:34;7.00;;;7.00;;
20906;SDS011;10613;50.966;5.814;2023-10-19T23:47:43;8.25;;;6.25;;
20906;SDS011;10613;50.966;5.814;2023-10-19T23:51:50;7.00;;;7.00;;
20906;SDS011;10613;50.966;5.814;2023-10-19T23:55:57;6.00;;;6.00;;
